sensor_id;sensor_type;location;lat;lon;timestamp;pressure;altitude;pressure_sealevel;temperature;humidity
5812;BME280;2932;52.400;9.558;2022-10-16T00:00:27;100428.66;;;18.65;63.12
5812;BME280;2932;52.400;9.558;2022-10-16T00:02:52;100439.84;;;18.65;63.06
5812;BME280;2932;52.400;9.558;2022-10-16T00:05:17;100438.66;;;18.67;62.83
5812;BME280;2932;52.400;9.558;2022-10-16T00:07:43;100437.44;;;18.57;62.92
5812;BME280;2932;52.400;9.558;2022-10-16T00:10:08;100439.47;;;18.46;63.40
5812;BME280;2932;52.400;9.558;2022-10-16T00:12:33;100447.06;;;18.52;62.92
5812;BME280;2932;52.400;9.558;2022-10-16T00:14:59;100439.47;;;18.49;63.23
5812;BME280;2932;52.400;9.558;2022-10-16T00:17:24;100449.50;;;18.36;63.52
5812;BME280;2932;52.400;9.558;2022-10-16T00:19:49;100445.53;;;18.33;63.37
5812;BME280;2932;52.400;9.558;2022-10-16T00:22:15;100446.72;;;18.36;63.34
5812;BME280;2932;52.400;9.558;2022-10-16T00:24:40;100449.53;;;18.22;63.94
5812;BME280;2932;52.400;9.558;2022-10-16T00:27:05;100445.94;;;18.21;64.01
5812;BME280;2932;52.400;9.558;2022-10-16T00:29:31;100451.53;;;18.18;64.28
5812;BME280;2932;52.400;9.558;2022-10-16T00:31:56;100465.53;;;18.11;64.56
5812;BME280;2932;52.400;9.558;2022-10-16T00:34:21;100461.50;;;17.62;66.44
5812;BME280;2932;52.400;9.558;2022-10-16T00:36:47;100462.69;;;17.64;66.69
5812;BME280;2932;52.400;9.558;2022-10-16T00:39:12;100456.75;;;17.84;66.41
5812;BME280;2932;52.400;9.558;2022-10-16T00:41:37;100459.16;;;17.78;66.88
5812;BME280;2932;52.400;9.558;2022-10-16T00:47:09;100460.66;;;17.40;69.01
5812;BME280;2932;52.400;9.558;2022-10-16T00:49:35;100459.50;;;17.45;69.48
5812;BME280;2932;52.400;9.558;2022-10-16T00:52:01;100468.22;;;17.25;70.29
5812;BME280;2932;52.400;9.558;2022-10-16T00:54:29;100473.00;;;17.25;70.97
5812;BME280;2932;52.400;9.558;2022-10-16T00:56:58;100468.63;;;17.31;70.67
5812;BME280;2932;52.400;9.558;2022-10-16T00:59:27;100467.09;;;17.62;69.95
5812;BME280;2932;52.400;9.558;2022-10-16T01:01:54;100467.50;;;17.53;70.86
5812;BME280;2932;52.400;9.558;2022-10-16T01:04:20;100469.47;;;17.42;71.40
5812;BME280;2932;52.400;9.558;2022-10-16T01:06:55;100467.53;;;17.67;70.88
5812;BME280;2932;52.400;9.558;2022-10-16T01:12:14;100464.75;;;17.75;70.28
5812;BME280;2932;52.400;9.558;2022-10-16T01:15:02;100465.16;;;17.87;70.00
5812;BME280;2932;52.400;9.558;2022-10-16T01:17:43;100469.97;;;17.90;70.49
5812;BME280;2932;52.400;9.558;2022-10-16T01:22:49;100469.13;;;18.04;70.19
5812;BME280;2932;52.400;9.558;2022-10-16T01:25:28;100480.34;;;17.90;70.74
5812;BME280;2932;52.400;9.558;2022-10-16T01:27:57;100489.16;;;17.88;71.14
5812;BME280;2932;52.400;9.558;2022-10-16T01:30:31;100489.88;;;17.60;72.33
5812;BME280;2932;52.400;9.558;2022-10-16T01:33:01;100495.13;;;18.01;71.23
5812;BME280;2932;52.400;9.558;2022-10-16T01:35:36;100494.75;;;18.20;70.19
5812;BME280;2932;52.400;9.558;2022-10-16T01:38:33;100495.53;;;18.14;70.56
5812;BME280;2932;52.400;9.558;2022-10-16T01:41:04;100496.34;;;18.11;70.53
5812;BME280;2932;52.400;9.558;2022-10-16T01:43:43;100497.94;;;18.05;70.48
5812;BME280;2932;52.400;9.558;2022-10-16T01:46:12;100499.13;;;17.72;72.17
5812;BME280;2932;52.400;9.558;2022-10-16T01:48:39;100505.13;;;18.06;71.52
5812;BME280;2932;52.400;9.558;2022-10-16T01:51:11;100503.53;;;18.05;70.70
5812;BME280;2932;52.400;9.558;2022-10-16T01:53:39;100495.13;;;18.22;70.85
5812;BME280;2932;52.400;9.558;2022-10-16T01:56:09;100496.75;;;18.27;70.63
5812;BME280;2932;52.400;9.558;2022-10-16T01:58:43;100500.75;;;18.19;70.75
5812;BME280;2932;52.400;9.558;2022-10-16T02:01:12;100501.94;;;18.11;71.09
5812;BME280;2932;52.400;9.558;2022-10-16T02:03:40;100498.75;;;18.23;70.79
5812;BME280;2932;52.400;9.558;2022-10-16T02:06:07;100487.91;;;17.68;72.35
5812;BME280;2932;52.400;9.558;2022-10-16T02:08:35;100487.06;;;17.60;73.04
5812;BME280;2932;52.400;9.558;2022-10-16T02:11:01;100497.16;;;17.86;72.16
5812;BME280;2932;52.400;9.558;2022-10-16T02:13:39;100503.13;;;17.81;72.85
5812;BME280;2932;52.400;9.558;2022-10-16T02:16:07;100506.69;;;17.67;72.78
5812;BME280;2932;52.400;9.558;2022-10-16T02:18:34;100498.66;;;17.62;72.65
5812;BME280;2932;52.400;9.558;2022-10-16T02:21:05;100514.69;;;17.65;72.47
5812;BME280;2932;52.400;9.558;2022-10-16T02:23:57;100519.50;;;17.72;72.67
5812;BME280;2932;52.400;9.558;2022-10-16T02:26:35;100523.13;;;17.76;72.40
5812;BME280;2932;52.400;9.558;2022-10-16T02:29:06;100521.44;;;17.50;73.02
5812;BME280;2932;52.400;9.558;2022-10-16T02:31:35;100528.69;;;17.65;72.68
5812;BME280;2932;52.400;9.558;2022-10-16T02:34:05;100519.53;;;17.79;72.34
5812;BME280;2932;52.400;9.558;2022-10-16T02:36:32;100511.13;;;17.79;71.89
5812;BME280;2932;52.400;9.558;2022-10-16T02:39:00;100513.13;;;17.79;72.40
5812;BME280;2932;52.400;9.558;2022-10-16T02:41:27;100514.31;;;17.81;72.18
5812;BME280;2932;52.400;9.558;2022-10-16T02:43:52;100507.53;;;17.86;71.81
5812;BME280;2932;52.400;9.558;2022-10-16T02:46:18;100510.34;;;17.96;71.92
5812;BME280;2932;52.400;9.558;2022-10-16T02:48:44;100508.31;;;17.72;72.68
5812;BME280;2932;52.400;9.558;2022-10-16T02:51:09;100513.44;;;17.49;73.47
5812;BME280;2932;52.400;9.558;2022-10-16T02:53:35;100519.94;;;17.85;72.70
5812;BME280;2932;52.400;9.558;2022-10-16T02:56:00;100520.31;;;17.76;72.98
5812;BME280;2932;52.400;9.558;2022-10-16T02:58:25;100520.66;;;17.57;73.34
5812;BME280;2932;52.400;9.558;2022-10-16T03:00:51;100521.91;;;17.81;73.09
5812;BME280;2932;52.400;9.558;2022-10-16T03:03:16;100519.94;;;17.92;72.84
5812;BME280;2932;52.400;9.558;2022-10-16T03:05:43;100519.16;;;17.95;72.57
5812;BME280;2932;52.400;9.558;2022-10-16T03:08:10;100520.72;;;17.99;72.48
5812;BME280;2932;52.400;9.558;2022-10-16T03:10:36;100517.91;;;17.67;72.50
5812;BME280;2932;52.400;9.558;2022-10-16T03:13:01;100527.13;;;17.86;73.43
5812;BME280;2932;52.400;9.558;2022-10-16T03:15:26;100530.34;;;17.98;72.56
5812;BME280;2932;52.400;9.558;2022-10-16T03:17:53;100525.94;;;18.05;72.43
5812;BME280;2932;52.400;9.558;2022-10-16T03:20:18;100526.72;;;17.80;72.57
5812;BME280;2932;52.400;9.558;2022-10-16T03:22:44;100533.94;;;18.20;72.35
5812;BME280;2932;52.400;9.558;2022-10-16T03:25:09;100529.53;;;18.16;71.96
5812;BME280;2932;52.400;9.558;2022-10-16T03:27:34;100522.75;;;17.95;72.05
5812;BME280;2932;52.400;9.558;2022-10-16T03:29:59;100523.16;;;17.94;72.61
5812;BME280;2932;52.400;9.558;2022-10-16T03:32:25;100521.16;;;17.91;72.47
5812;BME280;2932;52.400;9.558;2022-10-16T03:34:50;100520.34;;;18.19;72.34
5812;BME280;2932;52.400;9.558;2022-10-16T03:37:15;100531.53;;;18.40;71.57
5812;BME280;2932;52.400;9.558;2022-10-16T03:39:41;100526.34;;;18.24;71.69
5812;BME280;2932;52.400;9.558;2022-10-16T03:42:06;100522.75;;;18.10;72.02
5812;BME280;2932;52.400;9.558;2022-10-16T03:44:32;100517.53;;;18.05;71.84
5812;BME280;2932;52.400;9.558;2022-10-16T03:46:57;100521.13;;;18.05;72.28
5812;BME280;2932;52.400;9.558;2022-10-16T03:49:22;100518.34;;;18.12;71.91
5812;BME280;2932;52.400;9.558;2022-10-16T03:51:48;100516.75;;;18.18;71.42
5812;BME280;2932;52.400;9.558;2022-10-16T03:54:13;100521.53;;;18.39;71.23
5812;BME280;2932;52.400;9.558;2022-10-16T03:56:38;100523.16;;;18.19;71.60
5812;BME280;2932;52.400;9.558;2022-10-16T03:59:04;100513.16;;;18.21;71.47
5812;BME280;2932;52.400;9.558;2022-10-16T04:01:29;100525.16;;;18.25;71.80
5812;BME280;2932;52.400;9.558;2022-10-16T04:03:55;100525.94;;;18.37;71.39
5812;BME280;2932;52.400;9.558;2022-10-16T04:06:20;100532.34;;;18.37;71.21
5812;BME280;2932;52.400;9.558;2022-10-16T04:08:45;100530.75;;;18.29;71.25
5812;BME280;2932;52.400;9.558;2022-10-16T04:11:11;100543.97;;;18.28;71.80
5812;BME280;2932;52.400;9.558;2022-10-16T04:13:36;100547.94;;;18.10;71.91
5812;BME280;2932;52.400;9.558;2022-10-16T04:16:01;100547.13;;;18.09;71.99
5812;BME280;2932;52.400;9.558;2022-10-16T04:18:27;100545.91;;;17.99;71.91
5812;BME280;2932;52.400;9.558;2022-10-16T04:20:53;100553.56;;;17.99;72.54
5812;BME280;2932;52.400;9.558;2022-10-16T04:23:19;100529.84;;;17.57;73.38
5812;BME280;2932;52.400;9.558;2022-10-16T04:25:44;100539.06;;;17.58;73.17
5812;BME280;2932;52.400;9.558;2022-10-16T04:28:09;100553.88;;;17.69;73.59
5812;BME280;2932;52.400;9.558;2022-10-16T04:30:38;100546.97;;;17.42;74.23
5812;BME280;2932;52.400;9.558;2022-10-16T04:33:03;100558.13;;;17.34;74.20
5812;BME280;2932;52.400;9.558;2022-10-16T04:35:29;100563.25;;;17.11;75.07
5812;BME280;2932;52.400;9.558;2022-10-16T04:37:57;100562.47;;;17.21;75.08
5812;BME280;2932;52.400;9.558;2022-10-16T04:40:22;100560.16;;;17.41;74.87
5812;BME280;2932;52.400;9.558;2022-10-16T04:42:48;100556.63;;;17.55;74.44
5812;BME280;2932;52.400;9.558;2022-10-16T04:45:13;100558.53;;;17.37;75.21
5812;BME280;2932;52.400;9.558;2022-10-16T04:47:39;100546.22;;;17.55;74.28
5812;BME280;2932;52.400;9.558;2022-10-16T04:50:05;100550.16;;;17.37;74.86
5812;BME280;2932;52.400;9.558;2022-10-16T04:52:31;100558.47;;;17.22;74.92
5812;BME280;2932;52.400;9.558;2022-10-16T04:54:57;100559.81;;;17.53;74.61
5812;BME280;2932;52.400;9.558;2022-10-16T04:57:26;100558.16;;;17.38;75.03
5812;BME280;2932;52.400;9.558;2022-10-16T04:59:52;100568.19;;;17.46;75.05
5812;BME280;2932;52.400;9.558;2022-10-16T05:02:17;100579.91;;;17.87;72.94
5812;BME280;2932;52.400;9.558;2022-10-16T05:04:42;100579.88;;;17.77;73.62
5812;BME280;2932;52.400;9.558;2022-10-16T05:07:08;100576.19;;;17.62;74.27
5812;BME280;2932;52.400;9.558;2022-10-16T05:09:33;100582.88;;;17.29;74.87
5812;BME280;2932;52.400;9.558;2022-10-16T05:11:58;100586.50;;;17.37;75.23
5812;BME280;2932;52.400;9.558;2022-10-16T05:14:24;100589.34;;;17.40;74.41
5812;BME280;2932;52.400;9.558;2022-10-16T05:16:49;100586.13;;;17.38;74.60
5812;BME280;2932;52.400;9.558;2022-10-16T05:19:15;100578.94;;;17.37;74.77
5812;BME280;2932;52.400;9.558;2022-10-16T05:21:40;100587.66;;;17.28;75.36
5812;BME280;2932;52.400;9.558;2022-10-16T05:24:06;100589.31;;;17.37;74.36
5812;BME280;2932;52.400;9.558;2022-10-16T05:26:31;100596.47;;;17.30;74.91
5812;BME280;2932;52.400;9.558;2022-10-16T05:28:56;100596.00;;;17.11;75.56
5812;BME280;2932;52.400;9.558;2022-10-16T05:31:22;100599.63;;;17.22;75.48
5812;BME280;2932;52.400;9.558;2022-10-16T05:33:47;100599.63;;;17.22;75.21
5812;BME280;2932;52.400;9.558;2022-10-16T05:36:13;100605.69;;;17.34;75.44
5812;BME280;2932;52.400;9.558;2022-10-16T05:38:38;100605.31;;;17.43;74.60
5812;BME280;2932;52.400;9.558;2022-10-16T05:41:05;100605.44;;;17.68;74.07
5812;BME280;2932;52.400;9.558;2022-10-16T05:43:31;100599.38;;;17.55;74.18
5812;BME280;2932;52.400;9.558;2022-10-16T05:46:02;100586.56;;;17.47;74.24
5812;BME280;2932;52.400;9.558;2022-10-16T05:48:28;100593.34;;;17.46;74.47
5812;BME280;2932;52.400;9.558;2022-10-16T05:51:05;100601.78;;;17.64;73.47
5812;BME280;2932;52.400;9.558;2022-10-16T05:53:33;100612.97;;;17.53;74.12
5812;BME280;2932;52.400;9.558;2022-10-16T05:55:58;100613.75;;;17.47;74.83
5812;BME280;2932;52.400;9.558;2022-10-16T05:58:25;100602.16;;;17.48;74.53
5812;BME280;2932;52.400;9.558;2022-10-16T06:01:25;100608.06;;;17.29;75.02
5812;BME280;2932;52.400;9.558;2022-10-16T06:03:52;100606.06;;;17.29;75.17
5812;BME280;2932;52.400;9.558;2022-10-16T06:06:19;100607.66;;;17.30;75.05
5812;BME280;2932;52.400;9.558;2022-10-16T06:08:46;100617.72;;;17.46;74.14
5812;BME280;2932;52.400;9.558;2022-10-16T06:11:16;100625.34;;;17.49;74.25
5812;BME280;2932;52.400;9.558;2022-10-16T06:13:42;100618.56;;;17.53;74.10
5812;BME280;2932;52.400;9.558;2022-10-16T06:16:09;100620.50;;;17.42;74.62
5812;BME280;2932;52.400;9.558;2022-10-16T06:18:35;100629.38;;;17.58;74.14
5812;BME280;2932;52.400;9.558;2022-10-16T06:21:10;100629.16;;;17.16;75.08
5812;BME280;2932;52.400;9.558;2022-10-16T06:23:36;100639.47;;;17.05;75.34
5812;BME280;2932;52.400;9.558;2022-10-16T06:26:12;100632.38;;;17.21;75.37
5812;BME280;2932;52.400;9.558;2022-10-16T06:28:38;100640.78;;;17.25;75.34
5812;BME280;2932;52.400;9.558;2022-10-16T06:31:05;100645.59;;;17.28;75.27
5812;BME280;2932;52.400;9.558;2022-10-16T06:33:31;100637.13;;;17.10;75.38
5812;BME280;2932;52.400;9.558;2022-10-16T06:38:29;100652.50;;;17.48;74.67
5812;BME280;2932;52.400;9.558;2022-10-16T06:40:54;100636.53;;;17.49;74.58
5812;BME280;2932;52.400;9.558;2022-10-16T06:43:20;100651.78;;;17.65;74.19
5812;BME280;2932;52.400;9.558;2022-10-16T06:45:55;100647.75;;;17.59;74.18
5812;BME280;2932;52.400;9.558;2022-10-16T06:48:23;100660.25;;;17.80;73.67
5812;BME280;2932;52.400;9.558;2022-10-16T06:51:16;100677.47;;;17.82;73.24
5812;BME280;2932;52.400;9.558;2022-10-16T06:53:44;100680.28;;;17.89;73.29
5812;BME280;2932;52.400;9.558;2022-10-16T06:56:13;100682.69;;;17.87;73.77
5812;BME280;2932;52.400;9.558;2022-10-16T06:58:39;100676.34;;;18.08;73.03
5812;BME280;2932;52.400;9.558;2022-10-16T07:01:05;100677.13;;;17.94;72.74
5812;BME280;2932;52.400;9.558;2022-10-16T07:03:31;100669.91;;;18.04;72.77
5812;BME280;2932;52.400;9.558;2022-10-16T07:05:57;100672.78;;;18.25;72.44
5812;BME280;2932;52.400;9.558;2022-10-16T07:08:26;100673.59;;;18.47;71.97
5812;BME280;2932;52.400;9.558;2022-10-16T07:11:10;100671.66;;;18.72;71.18
5812;BME280;2932;52.400;9.558;2022-10-16T07:13:37;100683.25;;;18.60;70.92
5812;BME280;2932;52.400;9.558;2022-10-16T07:16:05;100690.03;;;18.34;71.89
5812;BME280;2932;52.400;9.558;2022-10-16T07:18:31;100686.81;;;18.50;71.59
5812;BME280;2932;52.400;9.558;2022-10-16T07:21:04;100693.44;;;17.81;73.68
5812;BME280;2932;52.400;9.558;2022-10-16T07:23:29;100707.38;;;17.67;74.60
5812;BME280;2932;52.400;9.558;2022-10-16T07:25:55;100702.19;;;17.73;74.27
5812;BME280;2932;52.400;9.558;2022-10-16T07:28:20;100707.91;;;17.97;73.29
5812;BME280;2932;52.400;9.558;2022-10-16T07:30:45;100714.59;;;17.72;73.72
5812;BME280;2932;52.400;9.558;2022-10-16T07:33:11;100722.75;;;18.09;72.86
5812;BME280;2932;52.400;9.558;2022-10-16T07:35:36;100726.81;;;18.25;71.83
5812;BME280;2932;52.400;9.558;2022-10-16T07:38:01;100734.53;;;18.64;71.37
5812;BME280;2932;52.400;9.558;2022-10-16T07:40:27;100733.34;;;18.79;70.63
5812;BME280;2932;52.400;9.558;2022-10-16T07:42:52;100739.31;;;18.63;70.27
5812;BME280;2932;52.400;9.558;2022-10-16T07:45:17;100758.13;;;18.63;70.45
5812;BME280;2932;52.400;9.558;2022-10-16T07:47:43;100757.34;;;18.80;70.14
5812;BME280;2932;52.400;9.558;2022-10-16T07:50:08;100760.97;;;18.74;69.81
5812;BME280;2932;52.400;9.558;2022-10-16T07:52:33;100764.94;;;18.62;71.05
5812;BME280;2932;52.400;9.558;2022-10-16T07:54:59;100764.59;;;19.17;69.34
5812;BME280;2932;52.400;9.558;2022-10-16T07:57:24;100757.78;;;19.18;69.33
5812;BME280;2932;52.400;9.558;2022-10-16T07:59:49;100761.75;;;19.42;68.79
5812;BME280;2932;52.400;9.558;2022-10-16T08:02:15;100762.16;;;19.40;68.00
5812;BME280;2932;52.400;9.558;2022-10-16T08:04:40;100771.78;;;19.39;67.98
5812;BME280;2932;52.400;9.558;2022-10-16T08:07:07;100776.19;;;19.40;68.41
5812;BME280;2932;52.400;9.558;2022-10-16T08:09:33;100786.63;;;19.18;68.35
5812;BME280;2932;52.400;9.558;2022-10-16T08:11:58;100796.66;;;19.12;68.32
5812;BME280;2932;52.400;9.558;2022-10-16T08:14:23;100784.22;;;19.35;68.57
5812;BME280;2932;52.400;9.558;2022-10-16T08:16:49;100805.84;;;19.41;68.03
5812;BME280;2932;52.400;9.558;2022-10-16T08:19:14;100793.03;;;19.22;68.92
5812;BME280;2932;52.400;9.558;2022-10-16T08:21:41;100794.63;;;18.98;69.29
5812;BME280;2932;52.400;9.558;2022-10-16T08:24:06;100800.22;;;18.88;69.21
5812;BME280;2932;52.400;9.558;2022-10-16T08:26:32;100800.63;;;19.36;68.63
5812;BME280;2932;52.400;9.558;2022-10-16T08:28:57;100803.84;;;19.24;68.07
5812;BME280;2932;52.400;9.558;2022-10-16T08:31:23;100801.47;;;19.19;68.61
5812;BME280;2932;52.400;9.558;2022-10-16T08:33:49;100812.25;;;19.31;68.14
5812;BME280;2932;52.400;9.558;2022-10-16T08:36:16;100809.06;;;19.43;68.11
5812;BME280;2932;52.400;9.558;2022-10-16T08:38:41;100813.88;;;19.64;67.65
5812;BME280;2932;52.400;9.558;2022-10-16T08:48:56;100819.44;;;19.96;66.71
5812;BME280;2932;52.400;9.558;2022-10-16T08:51:29;100821.00;;;20.04;65.95
5812;BME280;2932;52.400;9.558;2022-10-16T08:53:58;100822.66;;;19.80;66.84
5812;BME280;2932;52.400;9.558;2022-10-16T08:56:24;100814.63;;;19.96;66.84
5812;BME280;2932;52.400;9.558;2022-10-16T08:58:52;100819.75;;;20.16;66.74
5812;BME280;2932;52.400;9.558;2022-10-16T09:01:20;100826.59;;;20.04;66.70
5812;BME280;2932;52.400;9.558;2022-10-16T09:14:39;100843.31;;;20.50;64.50
5812;BME280;2932;52.400;9.558;2022-10-16T09:20:00;100850.59;;;20.41;64.94
5812;BME280;2932;52.400;9.558;2022-10-16T09:22:32;100857.75;;;20.59;64.77
5812;BME280;2932;52.400;9.558;2022-10-16T09:25:10;100870.59;;;20.64;65.24
5812;BME280;2932;52.400;9.558;2022-10-16T09:27:36;100869.66;;;20.88;64.56
5812;BME280;2932;52.400;9.558;2022-10-16T09:30:11;100871.09;;;21.18;64.31
5812;BME280;2932;52.400;9.558;2022-10-16T09:32:38;100873.75;;;20.73;64.50
5812;BME280;2932;52.400;9.558;2022-10-16T09:35:11;100870.19;;;20.62;64.64
5812;BME280;2932;52.400;9.558;2022-10-16T09:37:38;100861.16;;;20.99;63.90
5812;BME280;2932;52.400;9.558;2022-10-16T09:40:04;100859.13;;;21.00;63.71
5812;BME280;2932;52.400;9.558;2022-10-16T09:42:35;100866.28;;;21.15;63.07
5812;BME280;2932;52.400;9.558;2022-10-16T09:45:03;100878.50;;;21.49;62.60
5812;BME280;2932;52.400;9.558;2022-10-16T09:47:30;100863.38;;;21.29;62.93
5812;BME280;2932;52.400;9.558;2022-10-16T09:49:57;100884.59;;;20.78;63.79
5812;BME280;2932;52.400;9.558;2022-10-16T09:52:24;100890.63;;;20.77;63.86
5812;BME280;2932;52.400;9.558;2022-10-16T09:54:58;100883.16;;;21.15;63.12
5812;BME280;2932;52.400;9.558;2022-10-16T09:57:24;100881.72;;;20.85;63.41
5812;BME280;2932;52.400;9.558;2022-10-16T09:59:55;100887.16;;;21.17;62.93
5812;BME280;2932;52.400;9.558;2022-10-16T10:02:34;100902.88;;;21.70;61.02
5812;BME280;2932;52.400;9.558;2022-10-16T10:05:01;100900.94;;;21.60;60.55
5812;BME280;2932;52.400;9.558;2022-10-16T10:07:40;100892.13;;;22.03;59.60
5812;BME280;2932;52.400;9.558;2022-10-16T10:10:24;100889.56;;;21.74;60.66
5812;BME280;2932;52.400;9.558;2022-10-16T10:12:49;100908.50;;;21.70;60.78
5812;BME280;2932;52.400;9.558;2022-10-16T10:15:15;100896.78;;;21.20;61.25
5812;BME280;2932;52.400;9.558;2022-10-16T10:17:54;100903.41;;;20.88;60.96
5812;BME280;2932;52.400;9.558;2022-10-16T10:22:48;100912.84;;;21.26;60.75
5812;BME280;2932;52.400;9.558;2022-10-16T10:30:41;100913.66;;;20.18;62.02
5812;BME280;2932;52.400;9.558;2022-10-16T10:41:13;100928.44;;;20.58;61.27
5812;BME280;2932;52.400;9.558;2022-10-16T10:46:26;100914.41;;;22.27;58.85
5812;BME280;2932;52.400;9.558;2022-10-16T10:54:25;100899.25;;;22.14;56.81
5812;BME280;2932;52.400;9.558;2022-10-16T10:57:20;100906.47;;;21.71;57.14
5812;BME280;2932;52.400;9.558;2022-10-16T10:59:53;100920.28;;;21.58;58.13
5812;BME280;2932;52.400;9.558;2022-10-16T11:02:44;100913.78;;;22.09;56.93
5812;BME280;2932;52.400;9.558;2022-10-16T11:07:49;100917.59;;;21.40;58.16
5812;BME280;2932;52.400;9.558;2022-10-16T11:10:22;100921.19;;;21.44;58.42
5812;BME280;2932;52.400;9.558;2022-10-16T11:12:53;100922.88;;;21.31;58.42
5812;BME280;2932;52.400;9.558;2022-10-16T11:15:30;100943.97;;;20.91;59.07
5812;BME280;2932;52.400;9.558;2022-10-16T11:18:06;100943.97;;;21.60;58.23
5812;BME280;2932;52.400;9.558;2022-10-16T11:20:46;100931.03;;;22.18;56.78
5812;BME280;2932;52.400;9.558;2022-10-16T11:23:30;100930.50;;;22.31;56.39
5812;BME280;2932;52.400;9.558;2022-10-16T11:26:00;100937.34;;;23.82;53.65
5812;BME280;2932;52.400;9.558;2022-10-16T11:28:34;100936.97;;;23.26;53.95
5812;BME280;2932;52.400;9.558;2022-10-16T11:31:08;100927.56;;;22.79;54.84
5812;BME280;2932;52.400;9.558;2022-10-16T11:33:46;100953.72;;;23.67;53.62
5812;BME280;2932;52.400;9.558;2022-10-16T11:39:22;100934.50;;;22.67;55.17
5812;BME280;2932;52.400;9.558;2022-10-16T11:41:52;100941.88;;;22.57;55.73
5812;BME280;2932;52.400;9.558;2022-10-16T11:47:35;100936.13;;;22.31;55.90
5812;BME280;2932;52.400;9.558;2022-10-16T11:55:30;100949.44;;;24.06;53.20
5812;BME280;2932;52.400;9.558;2022-10-16T11:58:04;100952.81;;;25.39;50.81
5812;BME280;2932;52.400;9.558;2022-10-16T12:03:58;100952.09;;;26.78;47.22
5812;BME280;2932;52.400;9.558;2022-10-16T12:06:42;100950.19;;;26.30;48.32
5812;BME280;2932;52.400;9.558;2022-10-16T12:09:20;100967.50;;;25.86;48.86
5812;BME280;2932;52.400;9.558;2022-10-16T12:11:46;100978.78;;;26.80;47.51
5812;BME280;2932;52.400;9.558;2022-10-16T12:17:00;100974.72;;;26.94;46.66
5812;BME280;2932;52.400;9.558;2022-10-16T12:19:28;100976.66;;;25.94;47.62
5812;BME280;2932;52.400;9.558;2022-10-16T12:22:00;100973.84;;;26.23;47.79
5812;BME280;2932;52.400;9.558;2022-10-16T12:26:52;100966.13;;;25.42;49.53
5812;BME280;2932;52.400;9.558;2022-10-16T12:29:36;100976.59;;;26.27;47.76
5812;BME280;2932;52.400;9.558;2022-10-16T12:32:34;100972.47;;;25.99;48.34
5812;BME280;2932;52.400;9.558;2022-10-16T12:35:01;100967.34;;;27.64;45.05
5812;BME280;2932;52.400;9.558;2022-10-16T12:37:33;100961.47;;;28.52;43.90
5812;BME280;2932;52.400;9.558;2022-10-16T12:39:59;100962.03;;;28.60;44.23
5812;BME280;2932;52.400;9.558;2022-10-16T12:42:36;100963.97;;;30.73;41.60
5812;BME280;2932;52.400;9.558;2022-10-16T12:45:22;100966.22;;;29.83;42.31
5812;BME280;2932;52.400;9.558;2022-10-16T12:47:51;100967.97;;;31.78;40.48
5812;BME280;2932;52.400;9.558;2022-10-16T12:52:49;100982.09;;;31.39;41.11
5812;BME280;2932;52.400;9.558;2022-10-16T12:55:17;100997.47;;;30.72;41.21
5812;BME280;2932;52.400;9.558;2022-10-16T13:00:52;101000.44;;;29.21;43.21
5812;BME280;2932;52.400;9.558;2022-10-16T13:09:35;100994.81;;;29.30;42.97
5812;BME280;2932;52.400;9.558;2022-10-16T13:15:19;101004.16;;;32.23;38.90
5812;BME280;2932;52.400;9.558;2022-10-16T13:18:04;101014.94;;;30.65;40.46
5812;BME280;2932;52.400;9.558;2022-10-16T13:20:36;101012.84;;;30.57;40.59
5812;BME280;2932;52.400;9.558;2022-10-16T13:23:15;101007.06;;;31.81;39.42
5812;BME280;2932;52.400;9.558;2022-10-16T13:28:09;101019.81;;;31.10;39.86
5812;BME280;2932;52.400;9.558;2022-10-16T13:30:51;101018.41;;;29.52;42.06
5812;BME280;2932;52.400;9.558;2022-10-16T13:33:20;101024.06;;;29.83;41.50
5812;BME280;2932;52.400;9.558;2022-10-16T13:35:51;101025.31;;;31.41;39.64
5812;BME280;2932;52.400;9.558;2022-10-16T13:38:23;101015.63;;;32.23;38.78
5812;BME280;2932;52.400;9.558;2022-10-16T13:43:18;101029.31;;;30.52;40.05
5812;BME280;2932;52.400;9.558;2022-10-16T13:45:53;101040.78;;;30.62;40.88
5812;BME280;2932;52.400;9.558;2022-10-16T13:48:19;101032.06;;;29.58;41.77
5812;BME280;2932;52.400;9.558;2022-10-16T13:50:44;101031.63;;;28.81;43.35
5812;BME280;2932;52.400;9.558;2022-10-16T13:53:13;101026.81;;;29.96;41.73
5812;BME280;2932;52.400;9.558;2022-10-16T13:55:39;101031.56;;;31.03;39.88
5812;BME280;2932;52.400;9.558;2022-10-16T13:58:10;101032.88;;;28.80;42.92
5812;BME280;2932;52.400;9.558;2022-10-16T14:00:37;101036.75;;;29.30;42.37
5812;BME280;2932;52.400;9.558;2022-10-16T14:03:12;101048.72;;;27.32;44.98
5812;BME280;2932;52.400;9.558;2022-10-16T14:05:49;101046.75;;;27.16;45.72
5812;BME280;2932;52.400;9.558;2022-10-16T14:08:16;101036.94;;;29.88;42.07
5812;BME280;2932;52.400;9.558;2022-10-16T14:10:42;101036.50;;;31.81;38.76
5812;BME280;2932;52.400;9.558;2022-10-16T14:13:13;101027.78;;;32.95;38.21
5812;BME280;2932;52.400;9.558;2022-10-16T14:15:46;101052.06;;;31.80;38.13
5812;BME280;2932;52.400;9.558;2022-10-16T14:18:21;101055.25;;;29.25;41.87
5812;BME280;2932;52.400;9.558;2022-10-16T14:20:48;101058.56;;;31.11;40.00
5812;BME280;2932;52.400;9.558;2022-10-16T14:23:30;101054.75;;;30.60;40.92
5812;BME280;2932;52.400;9.558;2022-10-16T14:26:12;101059.78;;;31.98;38.69
5812;BME280;2932;52.400;9.558;2022-10-16T14:28:39;101066.69;;;31.13;39.52
5812;BME280;2932;52.400;9.558;2022-10-16T14:33:49;101050.28;;;33.11;37.28
5812;BME280;2932;52.400;9.558;2022-10-16T14:36:16;101058.75;;;33.21;36.80
5812;BME280;2932;52.400;9.558;2022-10-16T14:39:04;101062.78;;;32.61;36.93
5812;BME280;2932;52.400;9.558;2022-10-16T14:41:32;101067.94;;;30.94;39.03
5812;BME280;2932;52.400;9.558;2022-10-16T14:44:03;101068.97;;;29.39;41.71
5812;BME280;2932;52.400;9.558;2022-10-16T14:46:40;101081.25;;;29.27;41.61
5812;BME280;2932;52.400;9.558;2022-10-16T14:51:37;101073.34;;;31.01;39.82
5812;BME280;2932;52.400;9.558;2022-10-16T14:54:03;101066.59;;;31.59;39.11
5812;BME280;2932;52.400;9.558;2022-10-16T14:56:44;101066.16;;;31.42;39.23
5812;BME280;2932;52.400;9.558;2022-10-16T14:59:35;101056.53;;;33.54;37.12
5812;BME280;2932;52.400;9.558;2022-10-16T15:04:42;101070.13;;;34.79;35.61
5812;BME280;2932;52.400;9.558;2022-10-16T15:07:08;101073.56;;;33.87;36.18